METAR Data
IDs: Format: Raw Decoded Include TAF

Data at: 2117 UTC 31 Jan 2023

KPEZ 312115Z AUTO 02007G17KT 360V060 10SM SCT007 OVC012 03/02 A3024 RMK AO2 T00280015